createdAt,value
2019-02-25T00:01:35.025Z,75.94
2019-02-25T00:04:05.104Z,75.30
2019-02-25T00:06:34.119Z,74.49
2019-02-25T00:09:04.324Z,75.68
2019-02-25T00:11:33.277Z,75.79
2019-02-25T00:14:02.767Z,75.50
2019-02-25T00:16:31.751Z,76.32
2019-02-25T00:19:01.899Z,75.82
2019-02-25T00:21:31.057Z,75.79
2019-02-25T00:24:00.469Z,75.30
2019-02-25T00:26:29.436Z,76.42
2019-02-25T00:28:58.312Z,76.18
2019-02-25T00:31:28.329Z,76.47
2019-02-25T00:33:57.826Z,79.46
2019-02-25T00:36:27.044Z,78.04
2019-02-25T00:38:55.935Z,76.47
2019-02-25T00:41:25.272Z,76.73
2019-02-25T00:43:54.367Z,76.72
2019-02-25T00:46:24.438Z,76.55
2019-02-25T00:48:53.910Z,76.38
2019-02-25T00:51:24.061Z,76.25
2019-02-25T00:53:53.152Z,76.35
2019-02-25T00:56:22.638Z,76.60
2019-02-25T00:58:51.863Z,77.10
2019-02-25T01:01:21.137Z,76.71
2019-02-25T01:03:51.770Z,77.42
2019-02-25T01:20:12.507Z,77.04
2019-02-25T01:22:41.486Z,77.19
2019-02-25T01:25:10.775Z,77.25
2019-02-25T01:27:39.735Z,76.53
2019-02-25T01:30:10.558Z,77.83
2019-02-25T01:32:39.414Z,79.55
2019-02-25T01:35:10.111Z,81.18
2019-02-25T01:37:39.063Z,79.00
2019-02-25T01:40:09.237Z,78.27
2019-02-25T01:42:38.305Z,77.14
2019-02-25T01:45:08.923Z,77.71
2019-02-25T01:47:38.441Z,78.35
2019-02-25T01:50:08.153Z,78.07
2019-02-25T01:52:36.978Z,78.72
2019-02-25T01:55:06.217Z,81.95
2019-02-25T01:57:35.296Z,81.06
2019-02-25T02:00:05.126Z,79.88
2019-02-25T02:02:34.327Z,79.00
2019-02-25T02:05:03.298Z,78.90
2019-02-25T02:07:32.115Z,79.03
2019-02-25T02:10:01.027Z,78.78
2019-02-25T02:12:32.106Z,79.33
2019-02-25T02:15:01.460Z,78.85
2019-02-25T02:17:30.343Z,79.01
2019-02-25T02:19:59.178Z,78.88
2019-02-25T02:22:30.245Z,78.25
2019-02-25T02:24:59.435Z,78.92
2019-02-25T02:27:28.275Z,79.49
2019-02-25T02:29:57.407Z,82.67
2019-02-25T02:32:26.483Z,81.93
2019-02-25T02:34:55.321Z,79.88
2019-02-25T02:37:24.174Z,79.45
2019-02-25T02:39:53.018Z,78.76
2019-02-25T02:42:22.624Z,79.08
2019-02-25T02:44:56.738Z,79.37
2019-02-25T02:47:41.458Z,79.53
2019-02-25T02:50:13.502Z,79.48
2019-02-25T02:52:42.384Z,79.73
2019-02-25T02:55:11.395Z,79.63
2019-02-25T02:57:40.411Z,79.48
2019-02-25T03:00:12.919Z,79.52
2019-02-25T03:02:41.808Z,79.70
2019-02-25T03:05:12.525Z,79.59
2019-02-25T03:07:41.474Z,81.20
2019-02-25T03:10:11.702Z,81.82
2019-02-25T03:12:40.871Z,81.68
2019-02-25T03:15:12.848Z,81.42
2019-02-25T03:17:41.695Z,80.41
2019-02-25T03:20:11.250Z,79.94
2019-02-25T03:22:40.482Z,79.69
2019-02-25T03:25:11.343Z,80.13
2019-02-25T03:27:40.330Z,83.92
2019-02-25T03:30:12.669Z,82.27
2019-02-25T03:32:41.551Z,80.61
2019-02-25T03:35:10.824Z,80.46
2019-02-25T03:37:39.626Z,79.68
2019-02-25T03:40:11.720Z,79.17
2019-02-25T03:42:40.905Z,80.04
2019-02-25T03:45:11.038Z,80.01
2019-02-25T03:47:39.981Z,80.21
2019-02-25T03:50:09.164Z,80.43
2019-02-25T03:52:38.394Z,80.37
2019-02-25T03:55:09.066Z,80.45
2019-02-25T03:57:38.073Z,79.64
2019-02-25T04:00:08.668Z,79.73
2019-02-25T04:02:37.728Z,81.79
2019-02-25T04:05:07.292Z,82.40
2019-02-25T04:07:36.609Z,80.58
2019-02-25T04:10:06.169Z,80.29
2019-02-25T04:12:35.498Z,80.41
2019-02-25T04:15:05.624Z,80.48
2019-02-25T04:17:35.875Z,79.11
2019-02-25T04:20:05.344Z,80.91
2019-02-25T04:22:34.364Z,81.86
2019-02-25T04:25:03.224Z,80.35
2019-02-25T04:27:33.177Z,80.11
2019-02-25T04:30:02.080Z,79.87
2019-02-25T04:32:31.326Z,79.38
2019-02-25T04:35:00.561Z,82.67
2019-02-25T04:37:29.499Z,82.59
2019-02-25T04:39:58.400Z,80.74
2019-02-25T04:42:27.328Z,80.67
2019-02-25T04:44:56.186Z,80.17
2019-02-25T04:47:25.106Z,80.96
2019-02-25T04:49:53.972Z,84.86
2019-02-25T04:52:22.939Z,83.40
2019-02-25T04:54:51.782Z,81.75
2019-02-25T04:57:20.649Z,80.95
2019-02-25T04:59:49.641Z,80.58
2019-02-25T05:02:18.469Z,80.76
2019-02-25T05:04:49.442Z,83.24
2019-02-25T05:07:18.251Z,84.81
2019-02-25T05:09:47.294Z,82.76
2019-02-25T05:12:16.088Z,81.43
2019-02-25T05:14:44.999Z,81.24
2019-02-25T05:17:14.393Z,80.50
2019-02-25T05:19:43.395Z,80.22
2019-02-25T05:22:12.541Z,81.20
2019-02-25T05:24:41.548Z,81.74
2019-02-25T05:27:10.739Z,81.64
2019-02-25T05:29:39.553Z,81.41
2019-02-25T05:32:08.514Z,81.51
2019-02-25T05:34:37.341Z,81.68
2019-02-25T05:37:06.320Z,81.47
2019-02-25T05:39:35.412Z,83.36
2019-02-25T05:42:04.743Z,83.41
2019-02-25T05:44:34.493Z,82.10
2019-02-25T05:47:04.729Z,82.88
2019-02-25T05:49:33.574Z,82.00
2019-02-25T05:52:02.399Z,83.97
2019-02-25T05:54:32.442Z,85.03
2019-02-25T05:57:01.277Z,83.29
2019-02-25T05:59:30.248Z,83.04
2019-02-25T06:01:59.204Z,84.38
2019-02-25T06:04:28.083Z,82.78
2019-02-25T06:06:56.969Z,86.04
2019-02-25T06:09:26.920Z,86.41
2019-02-25T06:11:56.214Z,83.26
2019-02-25T06:14:25.527Z,82.42
2019-02-25T06:16:54.467Z,81.99
2019-02-25T06:19:23.350Z,81.93
2019-02-25T06:21:52.244Z,81.67
2019-02-25T06:24:21.224Z,82.12
2019-02-25T06:26:51.433Z,82.15
2019-02-25T06:29:20.275Z,82.69
2019-02-25T06:31:49.140Z,82.34
2019-02-25T06:34:18.175Z,82.20
2019-02-25T06:36:47.226Z,81.49
2019-02-25T06:39:16.090Z,80.94
2019-02-25T06:41:45.186Z,81.68
2019-02-25T06:44:14.160Z,81.87
2019-02-25T06:46:43.065Z,81.83
2019-02-25T06:52:39.941Z,84.67
2019-02-25T06:55:10.699Z,87.22
2019-02-25T06:57:39.549Z,85.83
2019-02-25T07:00:11.632Z,83.70
2019-02-25T07:02:40.858Z,82.25
2019-02-25T07:05:35.319Z,82.17
2019-02-25T07:08:26.470Z,82.70
2019-02-25T07:11:04.501Z,83.05
2019-02-25T07:13:51.461Z,86.32
2019-02-25T07:16:28.297Z,84.01
2019-02-25T07:19:26.188Z,83.07
2019-02-25T07:22:07.039Z,84.65
2019-02-25T07:24:54.065Z,83.53
2019-02-25T07:27:36.974Z,83.59
2019-02-25T07:30:41.858Z,83.62
2019-02-25T07:33:25.489Z,83.31
2019-02-25T07:36:19.687Z,83.08
2019-02-25T07:39:19.527Z,83.04
2019-02-25T07:42:12.710Z,83.58
2019-02-25T07:44:47.321Z,83.32
2019-02-25T07:47:47.262Z,83.21
2019-02-25T07:50:47.165Z,83.24
2019-02-25T07:53:34.470Z,83.25
2019-02-25T07:56:13.899Z,83.53
2019-02-25T07:58:55.241Z,83.56
2019-02-25T08:01:36.974Z,83.65
2019-02-25T08:04:14.603Z,83.32
2019-02-25T08:06:53.514Z,83.02
2019-02-25T08:09:36.518Z,83.07
2019-02-25T08:12:39.800Z,82.52
2019-02-25T08:15:24.187Z,81.76
2019-02-25T08:18:10.616Z,81.83
2019-02-25T08:20:47.306Z,81.24
2019-02-25T08:23:38.022Z,81.19
2019-02-25T08:26:24.722Z,80.49
2019-02-25T08:29:11.515Z,79.91
2019-02-25T08:31:51.346Z,78.47
2019-02-25T08:34:38.152Z,77.56
2019-02-25T08:37:36.786Z,75.98
2019-02-25T08:40:31.876Z,76.57
2019-02-25T08:43:07.151Z,74.65
2019-02-25T08:45:44.207Z,75.56
2019-02-25T08:48:32.190Z,75.34
2019-02-25T08:51:01.234Z,72.19
2019-02-25T08:53:30.203Z,72.16
2019-02-25T08:55:59.629Z,71.05
2019-02-25T08:58:28.939Z,68.16
2019-02-25T09:00:58.831Z,67.53
2019-02-25T09:03:28.374Z,67.84
2019-02-25T09:05:57.366Z,67.79
2019-02-25T09:08:26.280Z,68.45
2019-02-25T09:10:55.508Z,67.00
2019-02-25T09:13:24.343Z,64.58
2019-02-25T09:15:53.242Z,66.39
2019-02-25T09:18:23.100Z,65.37
2019-02-25T09:20:51.950Z,63.27
2019-02-25T09:23:20.906Z,63.14
2019-02-25T09:25:49.764Z,63.17
2019-02-25T09:28:18.592Z,62.88
2019-02-25T09:30:47.510Z,61.25
2019-02-25T09:33:18.499Z,62.27
2019-02-25T09:35:47.472Z,61.79
2019-02-25T09:38:16.450Z,61.13
2019-02-25T09:40:45.781Z,57.85
2019-02-25T09:43:15.071Z,58.30
2019-02-25T09:45:44.130Z,58.95
2019-02-25T09:48:13.078Z,58.56
2019-02-25T09:50:42.223Z,56.04
2019-02-25T09:53:11.396Z,56.26
2019-02-25T09:55:40.529Z,56.86
2019-02-25T09:58:09.521Z,53.92
2019-02-25T10:00:40.276Z,53.01
2019-02-25T10:03:10.574Z,52.83
2019-02-25T10:05:40.134Z,53.35
2019-02-25T10:08:09.033Z,52.43
2019-02-25T10:10:37.979Z,51.48
2019-02-25T10:13:06.953Z,50.34
2019-02-25T10:15:36.032Z,50.11
2019-02-25T10:18:07.820Z,51.20
2019-02-25T10:20:36.750Z,51.24
2019-02-25T10:23:05.956Z,48.81
2019-02-25T10:25:35.088Z,49.14
2019-02-25T10:28:12.617Z,49.12
2019-02-25T10:30:41.436Z,48.11
2019-02-25T10:33:10.265Z,50.17
2019-02-25T10:35:39.184Z,47.91
2019-02-25T10:38:08.390Z,48.55
2019-02-25T10:40:37.261Z,48.76
2019-02-25T10:43:06.405Z,46.07
2019-02-25T10:45:59.929Z,48.65
2019-02-25T10:48:42.134Z,46.42
2019-02-25T10:51:27.126Z,46.59
2019-02-25T10:54:04.101Z,46.74
2019-02-25T10:57:02.914Z,44.61
2019-02-25T10:59:34.583Z,44.32
2019-02-25T11:02:09.105Z,45.47
2019-02-25T11:04:38.810Z,45.46
2019-02-25T11:07:09.676Z,42.58
2019-02-25T11:10:10.008Z,43.50
2019-02-25T11:12:40.503Z,43.00
2019-02-25T11:15:11.471Z,42.37
2019-02-25T11:17:40.270Z,40.62
2019-02-25T11:20:10.187Z,41.46
2019-02-25T11:22:39.910Z,42.72
2019-02-25T11:25:09.844Z,41.41
2019-02-25T11:27:40.012Z,41.78
2019-02-25T11:30:12.102Z,41.30
2019-02-25T11:32:41.056Z,40.82
2019-02-25T11:35:16.115Z,41.73
2019-02-25T11:37:45.969Z,41.32
2019-02-25T11:40:15.040Z,42.37
2019-02-25T11:42:44.218Z,42.37
2019-02-25T11:45:13.256Z,42.57
2019-02-25T11:47:42.517Z,42.59
2019-02-25T11:50:13.014Z,41.40
2019-02-25T11:52:42.078Z,41.83
2019-02-25T11:55:11.234Z,39.61
2019-02-25T11:57:40.233Z,40.92
2019-02-25T12:00:14.081Z,40.55
2019-02-25T12:02:44.114Z,39.72
2019-02-25T12:05:14.038Z,41.59
2019-02-25T12:07:43.186Z,41.18
2019-02-25T12:10:13.287Z,40.68
2019-02-25T12:12:42.449Z,40.21
2019-02-25T12:15:13.109Z,36.87
2019-02-25T12:17:42.217Z,37.56
2019-02-25T12:20:12.251Z,38.67
2019-02-25T12:22:41.249Z,39.59
2019-02-25T12:25:11.474Z,38.83
2019-02-25T12:27:40.568Z,40.51
2019-02-25T12:30:13.195Z,39.40
2019-02-25T12:32:42.300Z,39.28
2019-02-25T12:35:13.306Z,38.81
2019-02-25T12:37:42.393Z,38.74
2019-02-25T12:40:11.806Z,38.38
2019-02-25T12:42:41.970Z,38.04
2019-02-25T12:45:11.992Z,35.75
2019-02-25T12:47:48.732Z,37.33
2019-02-25T12:50:17.672Z,37.01
2019-02-25T12:52:47.121Z,37.09
2019-02-25T12:55:16.063Z,37.55
2019-02-25T12:57:44.935Z,36.55
2019-02-25T13:00:14.697Z,34.67
2019-02-25T13:02:46.422Z,34.07
2019-02-25T13:05:15.901Z,34.95
2019-02-25T13:07:47.960Z,33.83
2019-02-25T13:10:17.636Z,34.29
2019-02-25T13:12:51.412Z,34.49
2019-02-25T13:15:21.370Z,34.98
2019-02-25T13:17:50.302Z,33.53
2019-02-25T13:20:27.114Z,34.00
2019-02-25T13:23:15.315Z,34.13
2019-02-25T13:26:06.974Z,35.38
2019-02-25T13:28:41.720Z,34.55
2019-02-25T13:31:37.045Z,34.63
2019-02-25T13:34:08.075Z,34.57
2019-02-25T13:36:38.022Z,33.85
2019-02-25T13:41:47.443Z,34.61
2019-02-25T13:44:16.301Z,33.23
2019-02-25T13:46:45.500Z,33.23
2019-02-25T13:49:14.679Z,33.09
2019-02-25T13:51:44.257Z,33.47
2019-02-25T13:54:14.752Z,33.68
2019-02-25T13:56:43.933Z,32.99
2019-02-25T13:59:12.980Z,33.70
2019-02-25T14:01:42.422Z,33.56
2019-02-25T14:04:11.456Z,34.17
2019-02-25T14:06:40.401Z,33.46
2019-02-25T14:09:10.798Z,33.34
2019-02-25T14:11:40.527Z,33.64
2019-02-25T14:14:10.558Z,33.18
2019-02-25T14:16:39.541Z,33.29
2019-02-25T14:19:09.032Z,33.05
2019-02-25T14:21:38.126Z,33.19
2019-02-25T14:24:07.235Z,32.33
2019-02-25T14:26:37.471Z,33.61
2019-02-25T14:29:07.366Z,33.07
2019-02-25T14:31:36.413Z,32.98
2019-02-25T14:34:05.649Z,31.78
2019-02-25T14:36:34.566Z,33.41
2019-02-25T14:39:06.155Z,32.57
2019-02-25T14:41:35.700Z,32.84
2019-02-25T14:44:05.238Z,33.36
2019-02-25T14:46:34.206Z,33.48
2019-02-25T14:49:03.201Z,34.12
2019-02-25T14:51:35.141Z,34.34
2019-02-25T14:54:03.987Z,33.96
2019-02-25T14:56:33.372Z,33.92
2019-02-25T14:59:12.517Z,33.98
2019-02-25T15:01:40.135Z,34.62
2019-02-25T15:04:09.794Z,34.70
2019-02-25T15:06:38.883Z,34.76
2019-02-25T15:09:12.041Z,33.77
2019-02-25T15:11:41.068Z,34.62
2019-02-25T15:14:10.723Z,34.60
2019-02-25T15:16:40.777Z,34.43
2019-02-25T15:19:09.729Z,33.99
2019-02-25T15:21:38.778Z,33.48
2019-02-25T15:24:14.744Z,33.42
2019-02-25T15:26:49.323Z,34.05
2019-02-25T15:29:18.752Z,32.57
2019-02-25T15:31:50.504Z,32.97
2019-02-25T15:34:21.189Z,32.21
2019-02-25T15:36:50.342Z,32.42
2019-02-25T15:39:19.911Z,31.69
2019-02-25T15:41:50.480Z,31.71
2019-02-25T15:44:19.831Z,31.70
2019-02-25T15:46:49.286Z,32.51
2019-02-25T15:49:19.735Z,33.47
2019-02-25T15:51:50.161Z,34.88
2019-02-25T15:54:21.806Z,36.11
2019-02-25T15:56:51.839Z,36.96
2019-02-25T15:59:21.033Z,37.55
2019-02-25T16:01:50.845Z,38.21
2019-02-25T16:04:20.053Z,38.20
2019-02-25T16:06:51.294Z,38.87
2019-02-25T16:09:23.838Z,38.99
2019-02-25T16:11:52.452Z,40.31
2019-02-25T16:14:23.377Z,39.85
2019-02-25T16:16:52.772Z,40.26
2019-02-25T16:19:22.082Z,41.22
2019-02-25T16:21:52.637Z,40.62
2019-02-25T16:24:22.003Z,40.90
2019-02-25T16:26:51.145Z,41.23
2019-02-25T16:29:20.011Z,41.76
2019-02-25T16:31:51.521Z,42.54
2019-02-25T16:34:20.985Z,43.16
2019-02-25T16:36:58.225Z,43.29
2019-02-25T16:39:28.379Z,43.49
2019-02-25T16:41:57.936Z,43.92
2019-02-25T16:44:26.802Z,44.91
2019-02-25T16:46:56.217Z,45.73
2019-02-25T16:49:25.741Z,45.73
2019-02-25T16:51:57.706Z,46.01
2019-02-25T16:54:27.252Z,46.13
2019-02-25T16:56:56.623Z,46.91
2019-02-25T16:59:29.437Z,46.91
2019-02-25T17:02:00.015Z,47.46
2019-02-25T17:04:32.801Z,48.29
2019-02-25T17:07:01.983Z,47.70
2019-02-25T17:09:36.383Z,47.70
2019-02-25T17:12:06.819Z,48.58
2019-02-25T17:14:41.552Z,49.73
2019-02-25T17:17:12.558Z,49.78
2019-02-25T17:19:44.733Z,49.80
2019-02-25T17:22:15.542Z,50.09
2019-02-25T17:24:52.397Z,50.55
2019-02-25T17:27:22.134Z,50.34
2019-02-25T17:29:52.930Z,50.64
2019-02-25T17:32:23.326Z,51.24
2019-02-25T17:34:56.556Z,51.38
2019-02-25T17:37:26.768Z,51.36
2019-02-25T17:39:58.494Z,51.87
2019-02-25T17:42:27.414Z,52.01
2019-02-25T17:44:57.669Z,52.20
2019-02-25T17:47:30.585Z,52.54
2019-02-25T17:50:00.846Z,53.13
2019-02-25T17:52:30.145Z,53.19
2019-02-25T17:54:59.129Z,53.56
2019-02-25T17:57:29.867Z,54.00
2019-02-25T17:59:59.710Z,55.09
2019-02-25T18:02:31.254Z,55.23
2019-02-25T18:05:00.232Z,55.96
2019-02-25T18:07:29.349Z,55.88
2019-02-25T18:13:08.204Z,56.47
2019-02-25T18:15:36.414Z,56.24
2019-02-25T18:18:11.597Z,56.19
2019-02-25T18:20:48.582Z,57.10
2019-02-25T18:23:21.237Z,56.41
2019-02-25T18:25:48.821Z,56.58
2019-02-25T18:28:19.671Z,56.84
2019-02-25T18:30:48.671Z,56.79
2019-02-25T18:33:20.399Z,56.66
2019-02-25T18:35:49.085Z,57.53
2019-02-25T18:38:18.130Z,57.28
2019-02-25T18:40:47.073Z,58.02
2019-02-25T18:43:16.738Z,57.97
2019-02-25T18:45:45.655Z,57.42
2019-02-25T18:48:17.372Z,57.90
2019-02-25T18:50:50.203Z,57.75
2019-02-25T18:53:20.511Z,57.99
2019-02-25T18:55:52.256Z,59.49
2019-02-25T18:58:21.629Z,59.92
2019-02-25T19:00:51.485Z,60.49
2019-02-25T19:03:21.623Z,61.25
2019-02-25T19:05:51.691Z,60.46
2019-02-25T19:08:22.862Z,60.23
2019-02-25T19:10:57.141Z,60.46
2019-02-25T19:13:32.169Z,60.96
2019-02-25T19:16:07.048Z,61.52
2019-02-25T19:18:36.342Z,62.47
2019-02-25T19:21:08.699Z,63.27
2019-02-25T19:23:39.479Z,63.77
2019-02-25T19:26:10.459Z,63.76
2019-02-25T19:28:39.281Z,62.91
2019-02-25T19:31:08.793Z,62.80
2019-02-25T19:33:38.193Z,64.55
2019-02-25T19:36:08.122Z,65.87
2019-02-25T19:38:41.950Z,63.70
2019-02-25T19:41:11.061Z,63.42
2019-02-25T19:43:39.839Z,63.20
2019-02-25T19:46:11.026Z,65.08
2019-02-25T19:48:40.214Z,64.58
2019-02-25T19:51:12.242Z,63.85
2019-02-25T19:53:42.976Z,65.02
2019-02-25T19:56:11.921Z,64.44
2019-02-25T19:58:41.238Z,64.75
2019-02-25T20:01:10.997Z,63.84
2019-02-25T20:03:42.490Z,63.95
2019-02-25T20:06:13.904Z,64.08
2019-02-25T20:08:43.036Z,65.14
2019-02-25T20:11:12.522Z,65.70
2019-02-25T20:13:42.986Z,65.87
2019-02-25T20:16:15.721Z,64.73
2019-02-25T20:18:44.510Z,64.41
2019-02-25T20:21:13.660Z,65.02
2019-02-25T20:23:42.483Z,64.45
2019-02-25T20:26:13.454Z,64.46
2019-02-25T20:28:46.180Z,65.39
2019-02-25T20:31:16.729Z,64.53
2019-02-25T20:33:47.073Z,66.19
2019-02-25T20:36:19.202Z,66.39
2019-02-25T20:38:47.775Z,66.60
2019-02-25T20:41:19.915Z,67.77
2019-02-25T20:43:53.276Z,67.08
2019-02-25T20:46:19.984Z,67.20
2019-02-25T20:48:49.071Z,67.23
2019-02-25T20:51:29.172Z,66.92
2019-02-25T20:53:57.526Z,68.03
2019-02-25T20:56:28.791Z,69.31
2019-02-25T20:58:58.963Z,70.00
2019-02-25T21:01:29.138Z,69.45
2019-02-25T21:03:58.059Z,68.07
2019-02-25T21:06:33.058Z,67.94
2019-02-25T21:09:11.123Z,68.38
2019-02-25T21:11:40.241Z,68.42
2019-02-25T21:14:09.137Z,71.54
2019-02-25T21:16:38.198Z,70.55
2019-02-25T21:19:08.053Z,69.20
2019-02-25T21:21:39.723Z,70.19
2019-02-25T21:24:11.272Z,69.62
2019-02-25T21:26:40.942Z,69.99
2019-02-25T21:29:10.189Z,69.29
2019-02-25T21:31:42.723Z,69.79
2019-02-25T21:34:09.910Z,69.94
2019-02-25T21:36:40.378Z,70.45
2019-02-25T21:39:12.226Z,71.00
2019-02-25T21:41:43.583Z,69.94
2019-02-25T21:44:16.676Z,69.69
2019-02-25T21:46:43.222Z,69.77
2019-02-25T21:49:12.070Z,69.76
2019-02-25T21:51:41.577Z,70.05
2019-02-25T21:54:11.577Z,74.51
2019-02-25T21:56:42.016Z,74.14
2019-02-25T21:59:12.777Z,71.38
2019-02-25T22:01:42.185Z,70.42
2019-02-25T22:04:13.396Z,70.65
2019-02-25T22:06:42.395Z,70.07
2019-02-25T22:09:12.176Z,70.64
2019-02-25T22:11:44.105Z,71.03
2019-02-25T22:14:15.896Z,71.26
2019-02-25T22:16:44.841Z,71.09
2019-02-25T22:19:14.723Z,70.56
2019-02-25T22:21:44.562Z,71.31
2019-02-25T22:24:16.118Z,70.24
2019-02-25T22:26:44.943Z,69.85
2019-02-25T22:29:14.210Z,70.64
2019-02-25T22:31:44.254Z,71.07
2019-02-25T22:34:15.336Z,70.73
2019-02-25T22:36:46.197Z,71.20
2019-02-25T22:39:15.293Z,71.52
2019-02-25T22:41:46.160Z,71.44
2019-02-25T22:44:14.975Z,71.98
2019-02-25T22:46:44.141Z,74.53
2019-02-25T22:49:13.090Z,72.29
2019-02-25T22:51:42.495Z,72.97
2019-02-25T22:54:12.473Z,73.00
2019-02-25T22:56:42.544Z,72.42
2019-02-25T22:59:11.797Z,71.98
2019-02-25T23:01:40.827Z,72.60
2019-02-25T23:04:13.060Z,72.45
2019-02-25T23:06:43.919Z,72.70
2019-02-25T23:09:14.115Z,73.23
2019-02-25T23:11:44.268Z,73.47
2019-02-25T23:14:15.697Z,72.82
2019-02-25T23:16:45.791Z,72.30
2019-02-25T23:19:18.051Z,72.05
2019-02-25T23:21:48.779Z,73.53
2019-02-25T23:24:18.023Z,72.94
2019-02-25T23:26:48.661Z,72.51
2019-02-25T23:29:30.415Z,72.77
2019-02-25T23:32:02.029Z,73.10
2019-02-25T23:34:30.408Z,73.81
2019-02-25T23:36:59.721Z,73.57
2019-02-25T23:39:32.029Z,73.34
2019-02-25T23:42:00.616Z,73.54
2019-02-25T23:44:32.530Z,73.65
2019-02-25T23:47:02.015Z,73.45
2019-02-25T23:49:31.836Z,73.46
2019-02-25T23:52:01.444Z,77.48
2019-02-25T23:54:30.423Z,77.90
2019-02-25T23:57:01.587Z,74.96
2019-02-25T23:59:30.636Z,74.48
